createdAt,value
2019-05-13T00:00:47.105Z,64.50
2019-05-13T00:03:16.148Z,65.10
2019-05-13T00:05:44.906Z,65.50
2019-05-13T00:08:14.061Z,65.80
2019-05-13T00:10:43.694Z,65.00
2019-05-13T00:13:14.789Z,64.80
2019-05-13T00:15:44.374Z,64.40
2019-05-13T00:18:14.358Z,65.30
2019-05-13T00:20:44.285Z,65.50
2019-05-13T00:23:14.267Z,65.70
2019-05-13T00:25:44.595Z,67.10
2019-05-13T00:28:14.416Z,66.30
2019-05-13T00:30:44.486Z,66.50
2019-05-13T00:33:14.109Z,66.90
2019-05-13T00:35:44.203Z,67.00
2019-05-13T00:38:14.166Z,67.70
2019-05-13T00:40:44.311Z,67.40
2019-05-13T00:43:14.348Z,67.50
2019-05-13T00:45:44.301Z,67.90
2019-05-13T00:48:14.400Z,68.30
2019-05-13T00:50:44.302Z,67.90
2019-05-13T00:53:13.607Z,67.60
2019-05-13T00:55:44.445Z,67.70
2019-05-13T00:58:13.992Z,68.00
2019-05-13T01:00:44.438Z,68.10
2019-05-13T01:03:14.257Z,68.00
2019-05-13T01:05:44.426Z,67.70
2019-05-13T01:08:14.699Z,68.20
2019-05-13T01:10:45.195Z,68.20
2019-05-13T01:13:14.209Z,67.80
2019-05-13T01:15:44.326Z,67.40
2019-05-13T01:18:14.241Z,67.70
2019-05-13T01:20:43.850Z,68.10
2019-05-13T01:23:14.086Z,68.00
2019-05-13T01:25:44.473Z,68.60
2019-05-13T01:28:13.672Z,68.50
2019-05-13T01:30:43.890Z,68.50
2019-05-13T01:33:14.467Z,68.50
2019-05-13T01:35:44.741Z,68.30
2019-05-13T01:38:13.695Z,69.50
2019-05-13T01:40:43.990Z,69.10
2019-05-13T01:43:14.404Z,69.30
2019-05-13T01:45:44.119Z,71.10
2019-05-13T01:48:14.116Z,70.40
2019-05-13T01:50:44.425Z,70.60
2019-05-13T01:53:14.464Z,70.30
2019-05-13T01:55:44.339Z,70.90
2019-05-13T01:58:14.554Z,71.20
2019-05-13T02:00:44.395Z,71.60
2019-05-13T02:03:14.494Z,71.40
2019-05-13T02:05:44.499Z,71.60
2019-05-13T02:08:14.424Z,71.00
2019-05-13T02:10:57.065Z,71.30
2019-05-13T02:13:26.343Z,70.90
2019-05-13T02:15:56.112Z,71.10
2019-05-13T02:18:25.206Z,71.20
2019-05-13T02:20:55.391Z,71.30
2019-05-13T02:23:24.698Z,71.50
2019-05-13T02:25:54.471Z,72.30
2019-05-13T02:28:24.711Z,72.50
2019-05-13T02:30:56.220Z,72.20
2019-05-13T02:33:24.701Z,72.40
2019-05-13T02:35:54.052Z,72.40
2019-05-13T02:38:28.830Z,73.10
2019-05-13T02:40:53.992Z,72.80
2019-05-13T02:43:23.789Z,72.70
2019-05-13T02:45:53.979Z,72.40
2019-05-13T02:48:24.031Z,72.20
2019-05-13T02:50:53.987Z,71.90
2019-05-13T02:53:24.456Z,72.30
2019-05-13T02:55:53.860Z,73.40
2019-05-13T02:58:24.273Z,73.80
2019-05-13T03:00:54.189Z,74.10
2019-05-13T03:03:23.822Z,74.10
2019-05-13T03:05:53.610Z,74.20
2019-05-13T03:08:35.255Z,74.30
2019-05-13T03:10:53.768Z,74.70
2019-05-13T03:13:23.673Z,74.40
2019-05-13T03:16:09.146Z,74.80
2019-05-13T03:18:38.044Z,75.10
2019-05-13T03:21:07.095Z,74.80
2019-05-13T03:23:36.193Z,74.60
2019-05-13T03:26:05.129Z,74.70
2019-05-13T03:28:34.126Z,75.00
2019-05-13T03:31:06.373Z,75.40
2019-05-13T03:33:36.810Z,75.00
2019-05-13T03:36:06.586Z,75.00
2019-05-13T03:38:58.317Z,75.60
2019-05-13T03:41:07.060Z,76.20
2019-05-13T03:43:38.921Z,76.60
2019-05-13T03:46:08.547Z,76.50
2019-05-13T03:48:42.808Z,75.90
2019-05-13T03:51:13.308Z,75.50
2019-05-13T03:53:43.215Z,75.80
2019-05-13T03:56:13.062Z,75.60
2019-05-13T03:58:43.289Z,76.00
2019-05-13T04:01:13.596Z,75.90
2019-05-13T04:03:43.922Z,75.60
2019-05-13T04:06:14.059Z,75.80
2019-05-13T04:08:44.266Z,75.20
2019-05-13T04:11:13.615Z,75.10
2019-05-13T04:13:43.257Z,75.70
2019-05-13T04:16:13.228Z,75.40
2019-05-13T04:18:43.191Z,75.10
2019-05-13T04:21:13.192Z,75.80
2019-05-13T04:23:43.174Z,76.00
2019-05-13T04:26:15.011Z,75.60
2019-05-13T04:28:43.953Z,75.30
2019-05-13T04:31:14.495Z,75.00
2019-05-13T04:33:43.713Z,75.60
2019-05-13T04:36:13.792Z,75.40
2019-05-13T04:38:44.282Z,76.10
2019-05-13T04:41:13.509Z,76.10
2019-05-13T04:43:43.437Z,76.00
2019-05-13T04:46:14.421Z,76.30
2019-05-13T04:48:44.400Z,76.10
2019-05-13T04:51:14.118Z,76.40
2019-05-13T04:53:43.541Z,76.60
2019-05-13T04:56:13.784Z,76.20
2019-05-13T04:58:43.395Z,77.10
2019-05-13T05:01:58.940Z,76.30
2019-05-13T05:04:43.728Z,76.10
2019-05-13T05:07:38.320Z,76.10
2019-05-13T05:10:43.036Z,75.80
2019-05-13T05:13:56.702Z,76.10
2019-05-13T05:16:47.984Z,75.90
2019-05-13T05:20:07.663Z,76.10
2019-05-13T05:23:14.923Z,75.90
2019-05-13T05:26:15.255Z,76.20
2019-05-13T05:29:11.343Z,75.80
2019-05-13T05:32:06.438Z,75.30
2019-05-13T05:35:26.588Z,75.00
2019-05-13T05:38:07.127Z,75.30
2019-05-13T05:40:37.941Z,75.80
2019-05-13T05:43:08.488Z,75.40
2019-05-13T05:45:38.502Z,75.90
2019-05-13T05:48:08.264Z,75.70
2019-05-13T05:50:38.390Z,75.20
2019-05-13T05:53:07.648Z,75.50
2019-05-13T05:55:36.894Z,75.50
2019-05-13T05:58:07.227Z,75.30
2019-05-13T06:00:41.335Z,74.90
2019-05-13T06:03:13.557Z,74.00
2019-05-13T06:05:41.894Z,73.80
2019-05-13T06:08:11.485Z,73.80
2019-05-13T06:10:47.325Z,73.50
2019-05-13T06:13:12.293Z,73.00
2019-05-13T06:15:42.078Z,72.40
2019-05-13T06:18:11.772Z,72.00
2019-05-13T06:20:41.800Z,72.10
2019-05-13T06:23:11.554Z,71.80
2019-05-13T06:25:42.809Z,71.20
2019-05-13T06:28:12.376Z,71.60
2019-05-13T06:30:41.730Z,70.90
2019-05-13T06:33:12.050Z,71.00
2019-05-13T06:35:44.247Z,71.30
2019-05-13T06:38:12.030Z,70.50
2019-05-13T06:40:42.394Z,69.90
2019-05-13T06:43:12.089Z,70.60
2019-05-13T06:45:42.075Z,70.10
2019-05-13T06:48:11.753Z,70.00
2019-05-13T06:50:41.581Z,70.10
2019-05-13T06:53:12.634Z,69.90
2019-05-13T06:55:41.942Z,68.70
2019-05-13T06:58:11.523Z,69.20
2019-05-13T07:00:42.821Z,69.90
2019-05-13T07:03:12.717Z,68.80
2019-05-13T07:05:42.458Z,68.20
2019-05-13T07:08:12.141Z,68.60
2019-05-13T07:10:41.651Z,68.20
2019-05-13T07:13:11.409Z,67.50
2019-05-13T07:15:41.717Z,67.90
2019-05-13T07:18:11.768Z,67.00
2019-05-13T07:20:42.636Z,67.70
2019-05-13T07:23:12.153Z,67.90
2019-05-13T07:25:42.216Z,68.00
2019-05-13T07:28:12.690Z,67.10
2019-05-13T07:30:43.457Z,67.10
2019-05-13T07:33:13.185Z,66.40
2019-05-13T07:35:44.621Z,66.00
2019-05-13T07:38:13.541Z,65.00
2019-05-13T07:40:42.359Z,65.50
2019-05-13T07:43:12.285Z,66.10
2019-05-13T07:45:42.484Z,65.30
2019-05-13T07:48:21.048Z,65.10
2019-05-13T07:50:53.206Z,64.50
2019-05-13T07:53:18.642Z,63.80
2019-05-13T07:55:43.773Z,64.40
2019-05-13T07:58:12.923Z,65.20
2019-05-13T08:00:42.089Z,64.80
2019-05-13T08:03:12.372Z,63.80
2019-05-13T08:05:41.977Z,63.10
2019-05-13T08:08:11.672Z,63.20
2019-05-13T08:10:41.579Z,62.90
2019-05-13T08:13:11.941Z,61.10
2019-05-13T08:15:42.410Z,61.80
2019-05-13T08:18:12.358Z,60.40
2019-05-13T08:20:42.155Z,59.90
2019-05-13T08:23:12.022Z,59.10
2019-05-13T08:25:42.356Z,60.20
2019-05-13T08:28:12.225Z,59.90
2019-05-13T08:30:42.671Z,58.50
2019-05-13T08:33:12.448Z,58.20
2019-05-13T08:35:46.675Z,57.20
2019-05-13T08:38:12.480Z,58.50
2019-05-13T08:40:42.430Z,58.60
2019-05-13T08:43:12.425Z,58.30
2019-05-13T08:45:42.241Z,57.40
2019-05-13T08:48:12.687Z,57.10
2019-05-13T08:50:42.417Z,56.00
2019-05-13T08:53:12.214Z,54.90
2019-05-13T08:55:42.541Z,54.20
2019-05-13T08:58:12.657Z,55.10
2019-05-13T09:00:53.352Z,54.20
2019-05-13T09:03:22.883Z,55.00
2019-05-13T09:05:52.392Z,53.90
2019-05-13T09:08:23.649Z,51.40
2019-05-13T09:10:56.431Z,52.30
2019-05-13T09:13:23.997Z,52.00
2019-05-13T09:15:53.181Z,52.10
2019-05-13T09:18:22.930Z,51.90
2019-05-13T09:20:52.412Z,52.00
2019-05-13T09:23:22.343Z,50.50
2019-05-13T09:25:52.342Z,50.20
2019-05-13T09:28:22.206Z,51.20
2019-05-13T09:30:53.131Z,50.50
2019-05-13T09:33:22.081Z,50.50
2019-05-13T09:35:53.520Z,49.90
2019-05-13T09:38:22.408Z,49.70
2019-05-13T09:40:52.925Z,50.50
2019-05-13T09:43:22.452Z,50.60
2019-05-13T09:45:52.243Z,48.70
2019-05-13T09:48:22.598Z,48.80
2019-05-13T09:50:52.055Z,49.40
2019-05-13T09:53:22.212Z,49.20
2019-05-13T09:55:52.297Z,49.60
2019-05-13T09:58:22.371Z,47.40
2019-05-13T10:00:52.872Z,45.40
2019-05-13T10:03:26.670Z,46.00
2019-05-13T10:05:52.944Z,44.80
2019-05-13T10:08:22.176Z,45.50
2019-05-13T10:10:52.791Z,45.30
2019-05-13T10:13:23.204Z,44.90
2019-05-13T10:15:52.287Z,44.00
2019-05-13T10:18:21.875Z,45.40
2019-05-13T10:20:58.260Z,43.00
2019-05-13T10:23:25.528Z,41.70
2019-05-13T10:25:57.873Z,42.20
2019-05-13T10:28:28.048Z,40.20
2019-05-13T10:30:56.942Z,41.30
2019-05-13T10:33:26.539Z,40.10
2019-05-13T10:35:55.860Z,40.20
2019-05-13T10:38:27.737Z,41.40
2019-05-13T10:40:55.487Z,39.70
2019-05-13T10:43:31.449Z,37.00
2019-05-13T10:45:55.731Z,36.40
2019-05-13T10:48:24.791Z,37.30
2019-05-13T10:50:54.147Z,38.90
2019-05-13T10:53:22.986Z,39.20
2019-05-13T10:55:52.358Z,39.60
2019-05-13T10:58:23.323Z,37.90
2019-05-13T11:00:54.387Z,38.50
2019-05-13T11:03:23.948Z,38.20
2019-05-13T11:05:53.189Z,38.50
2019-05-13T11:08:22.641Z,38.80
2019-05-13T11:10:53.100Z,40.20
2019-05-13T11:13:23.164Z,41.10
2019-05-13T11:15:57.814Z,37.90
2019-05-13T11:18:24.422Z,39.10
2019-05-13T11:20:53.938Z,37.90
2019-05-13T11:23:23.505Z,36.80
2019-05-13T11:25:52.794Z,38.10
2019-05-13T11:28:21.571Z,37.80
2019-05-13T11:30:52.000Z,38.30
2019-05-13T11:33:22.232Z,37.70
2019-05-13T11:35:52.447Z,37.70
2019-05-13T11:38:22.145Z,37.20
2019-05-13T11:40:52.639Z,37.80
2019-05-13T11:43:27.260Z,38.00
2019-05-13T11:45:52.433Z,37.90
2019-05-13T11:48:23.471Z,37.70
2019-05-13T11:50:54.204Z,36.70
2019-05-13T11:53:38.495Z,36.00
2019-05-13T11:55:53.866Z,36.50
2019-05-13T11:58:22.640Z,35.60
2019-05-13T12:00:54.404Z,36.20
2019-05-13T12:03:23.525Z,35.10
2019-05-13T12:05:54.071Z,33.90
2019-05-13T12:08:23.204Z,33.70
2019-05-13T12:10:52.390Z,34.90
2019-05-13T12:13:23.251Z,37.60
2019-05-13T12:15:54.466Z,37.10
2019-05-13T12:18:23.769Z,36.30
2019-05-13T12:20:54.276Z,35.40
2019-05-13T12:23:23.546Z,33.30
2019-05-13T12:25:53.345Z,33.10
2019-05-13T12:28:22.394Z,34.10
2019-05-13T12:30:53.146Z,33.50
2019-05-13T12:33:22.879Z,33.20
2019-05-13T12:35:53.675Z,33.30
2019-05-13T12:38:23.138Z,35.60
2019-05-13T12:40:52.946Z,33.50
2019-05-13T12:43:23.905Z,34.50
2019-05-13T12:45:53.312Z,34.20
2019-05-13T12:48:23.130Z,34.70
2019-05-13T12:50:53.918Z,34.20
2019-05-13T12:53:23.151Z,33.50
2019-05-13T12:55:56.108Z,33.50
2019-05-13T12:58:23.609Z,31.60
2019-05-13T13:00:53.562Z,32.00
2019-05-13T13:03:24.202Z,32.70
2019-05-13T13:05:53.474Z,33.60
2019-05-13T13:08:38.211Z,30.00
2019-05-13T13:10:53.934Z,29.30
2019-05-13T13:13:52.594Z,29.60
2019-05-13T13:15:53.867Z,30.30
2019-05-13T13:18:22.662Z,30.00
2019-05-13T13:20:57.799Z,30.20
2019-05-13T13:23:23.494Z,31.00
2019-05-13T13:25:56.850Z,29.70
2019-05-13T13:28:24.360Z,30.90
2019-05-13T13:30:53.639Z,31.30
2019-05-13T13:33:22.466Z,29.70
2019-05-13T13:35:58.948Z,29.80
2019-05-13T13:38:25.084Z,29.40
2019-05-13T13:40:53.907Z,29.30
2019-05-13T13:43:24.749Z,28.30
2019-05-13T13:46:25.304Z,27.30
2019-05-13T13:48:25.796Z,28.10
2019-05-13T13:50:56.687Z,26.50
2019-05-13T13:53:26.334Z,26.70
2019-05-13T13:55:56.144Z,26.50
2019-05-13T13:58:25.914Z,26.20
2019-05-13T14:01:04.978Z,26.10
2019-05-13T14:03:25.432Z,27.20
2019-05-13T14:05:54.301Z,27.50
2019-05-13T14:08:23.427Z,27.40
2019-05-13T14:10:52.383Z,28.00
2019-05-13T14:13:21.822Z,27.50
2019-05-13T14:15:52.678Z,27.80
2019-05-13T14:18:26.735Z,28.70
2019-05-13T14:20:53.103Z,27.30
2019-05-13T14:23:22.141Z,26.50
2019-05-13T14:25:52.874Z,27.00
2019-05-13T14:28:22.980Z,27.60
2019-05-13T14:30:52.129Z,28.70
2019-05-13T14:33:20.986Z,28.50
2019-05-13T14:35:50.148Z,27.30
2019-05-13T14:38:18.923Z,26.90
2019-05-13T14:40:48.376Z,27.00
2019-05-13T14:43:17.315Z,26.90
2019-05-13T14:45:46.087Z,27.90
2019-05-13T14:48:14.852Z,28.00
2019-05-13T14:50:44.229Z,27.50
2019-05-13T14:53:13.379Z,27.00
2019-05-13T14:55:42.491Z,26.30
2019-05-13T14:58:11.264Z,28.60
2019-05-13T15:00:42.177Z,27.20
2019-05-13T15:03:13.110Z,26.60
2019-05-13T15:05:42.950Z,26.90
2019-05-13T15:08:11.902Z,26.10
2019-05-13T15:10:41.984Z,27.40
2019-05-13T15:13:11.367Z,27.10
2019-05-13T15:15:42.151Z,27.10
2019-05-13T15:18:10.703Z,26.60
2019-05-13T15:20:41.112Z,25.60
2019-05-13T15:23:11.967Z,26.00
2019-05-13T15:25:41.982Z,25.80
2019-05-13T15:28:12.013Z,26.60
2019-05-13T15:30:42.068Z,26.30
2019-05-13T15:33:11.043Z,26.70
2019-05-13T15:35:41.997Z,26.40
2019-05-13T15:38:12.566Z,25.90
2019-05-13T15:40:41.556Z,26.10
2019-05-13T15:43:11.665Z,26.60
2019-05-13T15:45:42.505Z,27.00
2019-05-13T15:48:11.635Z,27.50
2019-05-13T15:50:42.199Z,27.60
2019-05-13T15:53:12.696Z,28.00
2019-05-13T15:55:41.875Z,27.90
2019-05-13T15:58:11.784Z,28.90
2019-05-13T16:00:41.933Z,29.10
2019-05-13T16:03:12.261Z,30.00
2019-05-13T16:05:42.335Z,31.10
2019-05-13T16:08:12.245Z,31.30
2019-05-13T16:10:42.028Z,31.10
2019-05-13T16:13:11.836Z,31.60
2019-05-13T16:15:41.591Z,31.40
2019-05-13T16:18:11.737Z,32.40
2019-05-13T16:20:44.432Z,33.20
2019-05-13T16:23:12.337Z,33.80
2019-05-13T16:25:42.076Z,33.70
2019-05-13T16:28:11.176Z,34.10
2019-05-13T16:30:42.018Z,33.90
2019-05-13T16:33:12.199Z,33.90
2019-05-13T16:35:42.429Z,33.80
2019-05-13T16:38:12.061Z,32.80
2019-05-13T16:40:42.406Z,32.50
2019-05-13T16:43:12.799Z,32.80
2019-05-13T16:45:42.454Z,32.70
2019-05-13T16:48:12.449Z,33.10
2019-05-13T16:50:41.856Z,34.30
2019-05-13T16:53:11.258Z,33.20
2019-05-13T16:55:41.699Z,33.60
2019-05-13T16:58:12.544Z,33.20
2019-05-13T17:00:42.495Z,33.70
2019-05-13T17:03:12.009Z,34.10
2019-05-13T17:05:42.043Z,34.10
2019-05-13T17:08:11.051Z,34.40
2019-05-13T17:10:41.889Z,34.20
2019-05-13T17:13:11.697Z,34.50
2019-05-13T17:15:41.684Z,34.30
2019-05-13T17:18:12.889Z,33.90
2019-05-13T17:20:41.540Z,33.70
2019-05-13T17:23:12.441Z,34.80
2019-05-13T17:25:42.321Z,34.30
2019-05-13T17:28:13.281Z,34.10
2019-05-13T17:30:42.667Z,31.60
2019-05-13T17:33:11.912Z,30.90
2019-05-13T17:35:41.864Z,30.90
2019-05-13T17:38:11.514Z,30.90
2019-05-13T17:40:42.051Z,31.50
2019-05-13T17:43:11.947Z,32.20
2019-05-13T17:45:41.681Z,32.30
2019-05-13T17:48:25.427Z,32.30
2019-05-13T17:50:41.461Z,31.80
2019-05-13T17:53:11.404Z,31.20
2019-05-13T17:55:40.438Z,31.40
2019-05-13T17:58:11.512Z,31.90
2019-05-13T18:00:41.534Z,31.40
2019-05-13T18:03:11.365Z,31.80
2019-05-13T18:05:42.081Z,31.90
2019-05-13T18:08:12.040Z,32.30
2019-05-13T18:10:42.018Z,32.10
2019-05-13T18:13:12.610Z,32.70
2019-05-13T18:15:41.690Z,32.80
2019-05-13T18:18:11.984Z,33.10
2019-05-13T18:20:41.578Z,33.80
2019-05-13T18:23:12.174Z,34.00
2019-05-13T18:25:42.168Z,34.40
2019-05-13T18:28:27.080Z,34.70
2019-05-13T18:30:41.868Z,34.90
2019-05-13T18:33:11.792Z,35.10
2019-05-13T18:35:41.880Z,35.70
2019-05-13T18:38:12.016Z,35.90
2019-05-13T18:40:41.936Z,36.00
2019-05-13T18:43:11.480Z,36.30
2019-05-13T18:45:41.925Z,36.60
2019-05-13T18:48:12.261Z,36.30
2019-05-13T18:50:42.018Z,36.50
2019-05-13T18:53:10.965Z,37.10
2019-05-13T18:55:41.605Z,37.10
2019-05-13T18:58:11.636Z,37.00
2019-05-13T19:00:41.657Z,37.30
2019-05-13T19:03:12.433Z,37.70
2019-05-13T19:05:42.223Z,37.30
2019-05-13T19:08:12.293Z,37.50
2019-05-13T19:10:41.664Z,37.90
2019-05-13T19:13:12.396Z,38.30
2019-05-13T19:15:41.199Z,39.10
2019-05-13T19:18:12.276Z,38.90
2019-05-13T19:20:41.895Z,39.40
2019-05-13T19:23:11.795Z,39.50
2019-05-13T19:25:42.779Z,39.30
2019-05-13T19:28:11.901Z,39.30
2019-05-13T19:30:41.343Z,39.60
2019-05-13T19:33:12.198Z,40.00
2019-05-13T19:35:42.565Z,40.70
2019-05-13T19:38:12.229Z,41.10
2019-05-13T19:40:41.994Z,41.20
2019-05-13T19:43:11.568Z,41.30
2019-05-13T19:45:41.587Z,41.60
2019-05-13T19:48:11.826Z,41.80
2019-05-13T20:23:02.639Z,45.60
2019-05-13T20:25:31.912Z,46.00
2019-05-13T20:28:02.394Z,46.30
2019-05-13T20:30:31.304Z,46.60
2019-05-13T20:33:02.280Z,46.60
2019-05-13T20:35:31.350Z,46.70
2019-05-13T20:38:02.151Z,46.70
2019-05-13T20:40:32.261Z,47.00
2019-05-13T20:43:01.966Z,47.10
2019-05-13T20:45:31.303Z,47.50
2019-05-13T20:48:01.496Z,47.90
2019-05-13T20:50:31.728Z,48.30
2019-05-13T20:53:00.618Z,48.60
2019-05-13T20:55:29.439Z,48.80
2019-05-13T20:57:58.211Z,49.00
2019-05-13T21:00:27.071Z,49.40
2019-05-13T21:02:56.149Z,50.10
2019-05-13T21:05:24.965Z,50.30
2019-05-13T21:07:53.761Z,50.60
2019-05-13T21:10:22.567Z,50.80
2019-05-13T21:12:51.579Z,51.10
2019-05-13T21:15:20.497Z,51.40
2019-05-13T21:17:51.448Z,52.20
2019-05-13T21:20:25.574Z,52.50
2019-05-13T21:22:53.630Z,52.70
2019-05-13T21:25:22.697Z,53.00
2019-05-13T21:27:51.813Z,53.20
2019-05-13T21:30:22.281Z,53.50
2019-05-13T21:32:51.740Z,53.80
2019-05-13T21:35:21.302Z,54.20
2019-05-13T21:37:51.159Z,54.40
2019-05-13T21:41:05.558Z,54.70
2019-05-13T21:43:34.721Z,54.80
2019-05-13T21:46:03.588Z,54.80
2019-05-13T21:48:32.730Z,54.90
2019-05-13T21:51:01.857Z,55.00
2019-05-13T21:53:32.613Z,55.20
2019-05-13T21:56:02.423Z,55.80
2019-05-13T21:58:31.627Z,56.30
2019-05-13T22:01:01.691Z,57.40
2019-05-13T22:03:33.243Z,57.40
2019-05-13T22:06:01.928Z,57.50
2019-05-13T22:08:32.064Z,57.50
2019-05-13T22:11:01.797Z,57.40
2019-05-13T22:13:31.580Z,57.60
2019-05-13T22:16:01.691Z,58.20
2019-05-13T22:18:31.598Z,58.30
2019-05-13T22:21:01.364Z,58.40
2019-05-13T22:23:32.054Z,59.00
2019-05-13T22:26:01.824Z,59.20
2019-05-13T22:28:31.372Z,59.70
2019-05-13T22:31:01.330Z,59.90
2019-05-13T22:33:32.474Z,60.10
2019-05-13T22:36:01.725Z,59.80
2019-05-13T22:38:32.359Z,60.20
2019-05-13T22:41:01.683Z,61.00
2019-05-13T22:43:31.961Z,61.10
2019-05-13T22:46:01.454Z,61.40
2019-05-13T22:48:31.762Z,61.90
2019-05-13T22:51:01.433Z,62.00
2019-05-13T22:53:31.846Z,62.30
2019-05-13T22:56:00.919Z,62.90
2019-05-13T22:58:31.867Z,63.20
2019-05-13T23:01:02.483Z,63.20
2019-05-13T23:03:32.358Z,63.40
2019-05-13T23:06:01.792Z,63.40
2019-05-13T23:08:32.442Z,63.70
2019-05-13T23:11:02.055Z,64.00
2019-05-13T23:13:31.532Z,64.50
2019-05-13T23:16:02.339Z,64.80
2019-05-13T23:18:31.680Z,65.40
2019-05-13T23:21:19.928Z,65.10
2019-05-13T23:23:48.699Z,64.90
2019-05-13T23:26:17.472Z,64.30
2019-05-13T23:28:46.552Z,64.20
2019-05-13T23:31:15.327Z,64.20
2019-05-13T23:33:44.094Z,64.80
2019-05-13T23:36:12.871Z,65.00
2019-05-13T23:38:41.644Z,64.70
2019-05-13T23:41:11.525Z,64.80
2019-05-13T23:43:40.600Z,64.50
2019-05-13T23:46:11.689Z,64.70
2019-05-13T23:48:41.312Z,64.80
2019-05-13T23:51:10.206Z,65.00
2019-05-13T23:53:38.959Z,64.70
2019-05-13T23:56:08.045Z,64.50
2019-05-13T23:58:36.803Z,65.10
